createdAt,value
2023-04-27T00:00:28.850Z,951.73
2023-04-27T00:01:28.797Z,951.72
2023-04-27T00:02:28.977Z,951.71
2023-04-27T00:03:29.023Z,951.67
2023-04-27T00:04:28.992Z,951.70
2023-04-27T00:05:28.870Z,951.69
2023-04-27T00:06:28.766Z,951.67
2023-04-27T00:07:28.747Z,951.70
2023-04-27T00:08:28.708Z,951.71
2023-04-27T00:09:28.695Z,951.68
2023-04-27T00:10:28.682Z,951.69
2023-04-27T00:11:28.671Z,951.71
2023-04-27T00:12:28.687Z,951.67
2023-04-27T00:13:28.673Z,951.71
2023-04-27T00:14:28.795Z,951.66
2023-04-27T00:15:28.668Z,951.69
2023-04-27T00:16:28.727Z,951.68
2023-04-27T00:17:28.690Z,951.70
2023-04-27T00:18:28.600Z,951.67
2023-04-27T00:19:28.602Z,951.73
2023-04-27T00:20:28.574Z,951.72
2023-04-27T00:21:28.566Z,951.70
2023-04-27T00:22:28.602Z,951.73
2023-04-27T00:23:28.553Z,951.72
2023-04-27T00:24:28.549Z,951.69
2023-04-27T00:25:28.522Z,951.66
2023-04-27T00:26:28.513Z,951.67
2023-04-27T00:27:28.495Z,951.66
2023-04-27T00:28:28.513Z,951.64
2023-04-27T00:29:28.500Z,951.65
2023-04-27T00:30:28.476Z,951.59
2023-04-27T00:31:28.490Z,951.65
2023-04-27T00:32:28.501Z,951.64
2023-04-27T00:33:28.438Z,951.65
2023-04-27T00:34:28.458Z,951.67
2023-04-27T00:35:28.400Z,951.65
2023-04-27T00:36:28.405Z,951.71
2023-04-27T00:37:28.432Z,951.69
2023-04-27T00:38:28.394Z,951.71
2023-04-27T00:39:28.387Z,951.69
2023-04-27T00:40:28.359Z,951.73
2023-04-27T00:41:28.425Z,951.66
2023-04-27T00:42:28.364Z,951.72
2023-04-27T00:43:28.318Z,951.71
2023-04-27T00:44:28.319Z,951.71
2023-04-27T00:45:28.323Z,951.71
2023-04-27T00:46:28.378Z,951.69
2023-04-27T00:47:28.334Z,951.73
2023-04-27T00:48:28.304Z,951.70
2023-04-27T00:49:28.249Z,951.73
2023-04-27T00:50:28.256Z,951.69
2023-04-27T00:51:28.261Z,951.68
2023-04-27T00:52:28.242Z,951.72
2023-04-27T00:53:28.244Z,951.73
2023-04-27T00:54:28.209Z,951.68
2023-04-27T00:55:28.186Z,951.79
2023-04-27T00:56:28.193Z,951.75
2023-04-27T00:57:28.194Z,951.73
2023-04-27T00:58:28.208Z,951.77
2023-04-27T00:59:28.144Z,951.76
2023-04-27T01:00:28.126Z,951.79
2023-04-27T01:01:28.209Z,951.81
2023-04-27T01:02:28.216Z,951.83
2023-04-27T01:03:28.247Z,951.81
2023-04-27T01:04:28.185Z,951.79
2023-04-27T01:05:28.098Z,951.80
2023-04-27T01:06:28.093Z,951.77
2023-04-27T01:07:28.085Z,951.79
2023-04-27T01:08:28.048Z,951.81
2023-04-27T01:09:28.041Z,951.81
2023-04-27T01:10:28.068Z,951.79
2023-04-27T01:11:28.001Z,951.78
2023-04-27T01:12:28.016Z,951.79
2023-04-27T01:13:27.975Z,951.80
2023-04-27T01:14:27.968Z,951.78
2023-04-27T01:15:27.959Z,951.77
2023-04-27T01:16:27.973Z,951.78
2023-04-27T01:17:27.980Z,951.76
2023-04-27T01:18:27.969Z,951.78
2023-04-27T01:19:27.936Z,951.82
2023-04-27T01:20:27.921Z,951.78
2023-04-27T01:21:27.886Z,951.80
2023-04-27T01:22:27.875Z,951.80
2023-04-27T01:23:27.887Z,951.81
2023-04-27T01:24:27.870Z,951.83
2023-04-27T01:25:27.850Z,951.81
2023-04-27T01:26:27.874Z,951.84
2023-04-27T01:27:27.819Z,951.81
2023-04-27T01:28:27.809Z,951.80
2023-04-27T01:29:27.842Z,951.82
2023-04-27T01:30:27.785Z,951.82
2023-04-27T01:31:27.791Z,951.81
2023-04-27T01:32:27.778Z,951.83
2023-04-27T01:33:27.751Z,951.86
2023-04-27T01:34:27.742Z,951.82
2023-04-27T01:35:28.460Z,951.84
2023-04-27T01:36:27.788Z,951.85
2023-04-27T01:37:27.723Z,951.85
2023-04-27T01:38:27.706Z,951.84
2023-04-27T01:39:27.739Z,951.85
2023-04-27T01:40:27.738Z,951.86
2023-04-27T01:41:34.764Z,951.87
2023-04-27T01:42:34.697Z,951.89
2023-04-27T01:43:27.648Z,951.91
2023-04-27T01:44:27.670Z,951.91
2023-04-27T01:45:34.700Z,951.89
2023-04-27T01:46:27.678Z,951.87
2023-04-27T01:47:34.664Z,951.84
2023-04-27T01:48:34.666Z,951.90
2023-04-27T01:49:27.583Z,951.90
2023-04-27T01:50:27.594Z,951.91
2023-04-27T01:51:27.558Z,951.86
2023-04-27T01:52:27.578Z,951.88
2023-04-27T01:53:27.532Z,951.89
2023-04-27T01:54:28.756Z,951.90
2023-04-27T01:55:27.530Z,951.91
2023-04-27T01:56:27.509Z,951.90
2023-04-27T01:57:27.510Z,951.88
2023-04-27T01:58:27.486Z,951.90
2023-04-27T01:59:27.509Z,951.92
2023-04-27T02:00:27.471Z,951.89
2023-04-27T02:01:27.455Z,951.94
2023-04-27T02:02:27.765Z,951.95
2023-04-27T02:03:27.614Z,951.93
2023-04-27T02:04:27.591Z,951.92
2023-04-27T02:05:27.437Z,951.94
2023-04-27T02:06:27.413Z,951.92
2023-04-27T02:07:27.388Z,951.97
2023-04-27T02:08:27.370Z,951.95
2023-04-27T02:09:27.356Z,951.94
2023-04-27T02:10:27.366Z,951.96
2023-04-27T02:11:27.330Z,951.96
2023-04-27T02:12:27.323Z,951.95
2023-04-27T02:13:27.336Z,951.93
2023-04-27T02:14:27.326Z,951.92
2023-04-27T02:15:27.307Z,951.98
2023-04-27T02:16:27.319Z,951.96
2023-04-27T02:17:27.279Z,951.96
2023-04-27T02:18:27.260Z,952.01
2023-04-27T02:19:27.244Z,951.99
2023-04-27T02:20:27.259Z,951.95
2023-04-27T02:21:27.240Z,952.00
2023-04-27T02:22:27.215Z,952.03
2023-04-27T02:23:27.226Z,952.01
2023-04-27T02:24:27.194Z,952.02
2023-04-27T02:25:27.197Z,951.99
2023-04-27T02:26:27.181Z,952.00
2023-04-27T02:27:27.165Z,952.03
2023-04-27T02:28:27.192Z,952.03
2023-04-27T02:29:27.150Z,951.97
2023-04-27T02:30:27.152Z,951.98
2023-04-27T02:31:27.222Z,951.99
2023-04-27T02:32:27.140Z,952.00
2023-04-27T02:33:27.111Z,951.98
2023-04-27T02:34:27.081Z,951.99
2023-04-27T02:35:27.088Z,952.01
2023-04-27T02:36:27.062Z,952.03
2023-04-27T02:37:27.079Z,952.03
2023-04-27T02:38:27.038Z,952.04
2023-04-27T02:39:27.023Z,951.99
2023-04-27T02:40:27.011Z,952.00
2023-04-27T02:41:27.005Z,952.06
2023-04-27T02:42:27.015Z,952.05
2023-04-27T02:43:26.985Z,952.06
2023-04-27T02:44:26.972Z,952.09
2023-04-27T02:45:26.974Z,952.06
2023-04-27T02:46:27.158Z,952.04
2023-04-27T02:47:26.963Z,952.05
2023-04-27T02:48:26.922Z,952.05
2023-04-27T02:49:26.971Z,952.04
2023-04-27T02:50:26.904Z,952.05
2023-04-27T02:51:26.897Z,952.00
2023-04-27T02:52:26.889Z,952.07
2023-04-27T02:53:26.860Z,952.05
2023-04-27T02:54:26.855Z,952.07
2023-04-27T02:55:26.848Z,952.07
2023-04-27T02:56:26.836Z,952.08
2023-04-27T02:57:26.840Z,952.09
2023-04-27T02:58:26.834Z,952.06
2023-04-27T02:59:26.809Z,952.11
2023-04-27T03:00:26.798Z,952.06
2023-04-27T03:01:27.089Z,952.11
2023-04-27T03:02:26.853Z,952.07
2023-04-27T03:03:26.961Z,952.08
2023-04-27T03:04:26.842Z,952.16
2023-04-27T03:05:26.754Z,952.14
2023-04-27T03:06:26.719Z,952.15
2023-04-27T03:07:26.729Z,952.12
2023-04-27T03:08:26.718Z,952.16
2023-04-27T03:09:26.683Z,952.12
2023-04-27T03:10:26.674Z,952.11
2023-04-27T03:11:26.662Z,952.15
2023-04-27T03:12:26.684Z,952.17
2023-04-27T03:13:26.640Z,952.13
2023-04-27T03:14:26.637Z,952.19
2023-04-27T03:15:26.620Z,952.14
2023-04-27T03:16:26.691Z,952.14
2023-04-27T03:17:26.642Z,952.12
2023-04-27T03:18:26.618Z,952.14
2023-04-27T03:19:26.590Z,952.14
2023-04-27T03:20:26.583Z,952.15
2023-04-27T03:21:26.567Z,952.19
2023-04-27T03:22:26.540Z,952.18
2023-04-27T03:23:26.526Z,952.17
2023-04-27T03:24:26.521Z,952.17
2023-04-27T03:25:26.529Z,952.22
2023-04-27T03:26:26.510Z,952.18
2023-04-27T03:27:26.508Z,952.24
2023-04-27T03:28:35.322Z,952.26
2023-04-27T03:29:26.480Z,952.23
2023-04-27T03:30:26.468Z,952.23
2023-04-27T03:31:26.477Z,952.26
2023-04-27T03:32:26.482Z,952.31
2023-04-27T03:33:26.482Z,952.28
2023-04-27T03:34:26.407Z,952.29
2023-04-27T03:35:26.398Z,952.28
2023-04-27T03:36:26.390Z,952.26
2023-04-27T03:37:26.376Z,952.30
2023-04-27T03:38:26.396Z,952.29
2023-04-27T03:39:26.372Z,952.32
2023-04-27T03:40:26.338Z,952.34
2023-04-27T03:41:26.338Z,952.32
2023-04-27T03:42:26.317Z,952.33
2023-04-27T03:43:26.334Z,952.35
2023-04-27T03:44:26.300Z,952.34
2023-04-27T03:45:26.322Z,952.32
2023-04-27T03:46:26.358Z,952.33
2023-04-27T03:47:26.295Z,952.35
2023-04-27T03:48:26.255Z,952.36
2023-04-27T03:49:26.279Z,952.35
2023-04-27T03:50:26.950Z,952.37
2023-04-27T03:51:26.221Z,952.38
2023-04-27T03:52:26.236Z,952.41
2023-04-27T03:53:26.206Z,952.42
2023-04-27T03:54:26.189Z,952.39
2023-04-27T03:55:26.188Z,952.40
2023-04-27T03:56:26.181Z,952.43
2023-04-27T03:57:26.154Z,952.41
2023-04-27T03:58:26.145Z,952.39
2023-04-27T03:59:26.133Z,952.45
2023-04-27T04:00:26.118Z,952.41
2023-04-27T04:01:26.140Z,952.45
2023-04-27T04:02:26.228Z,952.44
2023-04-27T04:03:26.271Z,952.45
2023-04-27T04:04:26.239Z,952.43
2023-04-27T04:05:26.090Z,952.41
2023-04-27T04:06:26.052Z,952.44
2023-04-27T04:07:26.185Z,952.45
2023-04-27T04:08:26.050Z,952.43
2023-04-27T04:09:33.572Z,952.46
2023-04-27T04:10:26.025Z,952.49
2023-04-27T04:11:33.554Z,952.50
2023-04-27T04:12:25.993Z,952.53
2023-04-27T04:13:26.002Z,952.56
2023-04-27T04:14:25.967Z,952.55
2023-04-27T04:15:25.964Z,952.59
2023-04-27T04:16:25.993Z,952.57
2023-04-27T04:17:25.969Z,952.62
2023-04-27T04:18:25.961Z,952.57
2023-04-27T04:19:25.922Z,952.55
2023-04-27T04:20:25.934Z,952.57
2023-04-27T04:21:25.950Z,952.60
2023-04-27T04:22:25.894Z,952.57
2023-04-27T04:23:25.877Z,952.61
2023-04-27T04:24:25.859Z,952.59
2023-04-27T04:25:25.871Z,952.63
2023-04-27T04:26:25.830Z,952.63
2023-04-27T04:27:25.849Z,952.63
2023-04-27T04:28:25.826Z,952.67
2023-04-27T04:29:25.886Z,952.66
2023-04-27T04:30:25.786Z,952.72
2023-04-27T04:31:25.824Z,952.68
2023-04-27T04:32:25.777Z,952.64
2023-04-27T04:33:25.760Z,952.65
2023-04-27T04:34:25.776Z,952.67
2023-04-27T04:35:25.746Z,952.70
2023-04-27T04:36:25.726Z,952.69
2023-04-27T04:37:25.734Z,952.70
2023-04-27T04:38:25.698Z,952.69
2023-04-27T04:39:25.708Z,952.68
2023-04-27T04:40:25.743Z,952.71
2023-04-27T04:41:25.687Z,952.74
2023-04-27T04:42:25.687Z,952.79
2023-04-27T04:43:25.654Z,952.78
2023-04-27T04:44:25.635Z,952.74
2023-04-27T04:45:25.634Z,952.72
2023-04-27T04:46:25.722Z,952.74
2023-04-27T04:47:25.635Z,952.75
2023-04-27T04:48:25.617Z,952.77
2023-04-27T04:49:25.577Z,952.74
2023-04-27T04:50:25.577Z,952.81
2023-04-27T04:51:25.575Z,952.79
2023-04-27T04:52:25.543Z,952.78
2023-04-27T04:53:25.554Z,952.77
2023-04-27T04:54:25.578Z,952.76
2023-04-27T04:55:25.541Z,952.78
2023-04-27T04:56:25.506Z,952.76
2023-04-27T04:57:25.529Z,952.74
2023-04-27T04:58:25.484Z,952.75
2023-04-27T04:59:25.484Z,952.75
2023-04-27T05:00:25.460Z,952.75
2023-04-27T05:01:25.478Z,952.75
2023-04-27T05:02:25.606Z,952.70
2023-04-27T05:03:26.519Z,952.69
2023-04-27T05:04:25.588Z,952.71
2023-04-27T05:05:25.401Z,952.71
2023-04-27T05:06:25.417Z,952.74
2023-04-27T05:07:25.376Z,952.75
2023-04-27T05:08:25.375Z,952.72
2023-04-27T05:09:25.375Z,952.72
2023-04-27T05:10:25.362Z,952.73
2023-04-27T05:11:25.337Z,952.68
2023-04-27T05:12:25.322Z,952.69
2023-04-27T05:13:25.334Z,952.69
2023-04-27T05:14:25.311Z,952.72
2023-04-27T05:15:25.303Z,952.70
2023-04-27T05:16:25.299Z,952.73
2023-04-27T05:17:25.295Z,952.72
2023-04-27T05:18:25.292Z,952.67
2023-04-27T05:19:25.256Z,952.68
2023-04-27T05:20:25.241Z,952.69
2023-04-27T05:21:25.224Z,952.71
2023-04-27T05:22:25.228Z,952.69
2023-04-27T05:23:25.201Z,952.68
2023-04-27T05:24:25.214Z,952.65
2023-04-27T05:25:25.210Z,952.66
2023-04-27T05:26:25.169Z,952.60
2023-04-27T05:27:25.261Z,952.65
2023-04-27T05:28:25.154Z,952.62
2023-04-27T05:29:25.143Z,952.61
2023-04-27T05:30:25.128Z,952.62
2023-04-27T05:31:25.133Z,952.68
2023-04-27T05:32:25.172Z,952.67
2023-04-27T05:33:25.098Z,952.68
2023-04-27T05:34:25.086Z,952.75
2023-04-27T05:35:25.115Z,952.73
2023-04-27T05:36:25.053Z,952.71
2023-04-27T05:37:25.079Z,952.73
2023-04-27T05:38:25.048Z,952.68
2023-04-27T05:39:25.047Z,952.73
2023-04-27T05:40:27.938Z,952.74
2023-04-27T05:41:25.020Z,952.72
2023-04-27T05:42:25.015Z,952.72
2023-04-27T05:43:24.985Z,952.65
2023-04-27T05:44:25.164Z,952.70
2023-04-27T05:45:24.979Z,952.69
2023-04-27T05:46:24.997Z,952.68
2023-04-27T05:47:24.971Z,952.71
2023-04-27T05:48:24.927Z,952.75
2023-04-27T05:49:24.934Z,952.67
2023-04-27T05:50:24.904Z,952.68
2023-04-27T05:51:24.891Z,952.71
2023-04-27T05:52:24.911Z,952.64
2023-04-27T05:53:24.870Z,952.59
2023-04-27T05:54:24.859Z,952.61
2023-04-27T05:55:24.857Z,952.60
2023-04-27T05:56:24.863Z,952.58
2023-04-27T05:57:24.879Z,952.60
2023-04-27T05:58:24.813Z,952.59
2023-04-27T05:59:24.900Z,952.63
2023-04-27T06:00:24.790Z,952.63
2023-04-27T06:01:24.814Z,952.60
2023-04-27T06:02:24.930Z,952.65
2023-04-27T06:03:25.053Z,952.61
2023-04-27T06:04:24.899Z,952.66
2023-04-27T06:05:24.768Z,952.65
2023-04-27T06:06:24.732Z,952.65
2023-04-27T06:07:24.716Z,952.62
2023-04-27T06:08:24.720Z,952.62
2023-04-27T06:09:24.700Z,952.64
2023-04-27T06:10:24.721Z,952.63
2023-04-27T06:11:24.682Z,952.67
2023-04-27T06:12:24.677Z,952.70
2023-04-27T06:13:24.676Z,952.71
2023-04-27T06:14:24.633Z,952.70
2023-04-27T06:15:24.646Z,952.69
2023-04-27T06:16:24.978Z,952.66
2023-04-27T06:17:24.614Z,952.68
2023-04-27T06:18:24.617Z,952.69
2023-04-27T06:19:24.595Z,952.69
2023-04-27T06:20:24.570Z,952.74
2023-04-27T06:21:24.569Z,952.73
2023-04-27T06:22:24.546Z,952.74
2023-04-27T06:23:24.569Z,952.75
2023-04-27T06:24:24.556Z,952.80
2023-04-27T06:25:27.189Z,952.75
2023-04-27T06:26:24.523Z,952.81
2023-04-27T06:27:24.497Z,952.75
2023-04-27T06:28:24.517Z,952.78
2023-04-27T06:29:24.513Z,952.80
2023-04-27T06:30:24.482Z,952.79
2023-04-27T06:31:24.536Z,952.86
2023-04-27T06:32:24.483Z,952.77
2023-04-27T06:33:24.423Z,952.84
2023-04-27T06:34:24.423Z,952.74
2023-04-27T06:35:24.423Z,952.78
2023-04-27T06:36:24.385Z,952.79
2023-04-27T06:37:24.375Z,952.79
2023-04-27T06:38:24.372Z,952.81
2023-04-27T06:39:24.379Z,952.73
2023-04-27T06:40:24.512Z,952.71
2023-04-27T06:41:24.336Z,952.76
2023-04-27T06:42:24.324Z,952.75
2023-04-27T06:43:24.328Z,952.78
2023-04-27T06:44:24.330Z,952.74
2023-04-27T06:45:24.282Z,952.75
2023-04-27T06:46:24.307Z,952.81
2023-04-27T06:47:24.275Z,952.80
2023-04-27T06:48:24.299Z,952.82
2023-04-27T06:49:24.257Z,952.85
2023-04-27T06:50:24.238Z,952.85
2023-04-27T06:51:24.216Z,952.82
2023-04-27T06:52:24.217Z,952.78
2023-04-27T06:53:24.192Z,952.85
2023-04-27T06:54:24.226Z,952.83
2023-04-27T06:55:24.180Z,952.85
2023-04-27T06:57:15.595Z,952.84
2023-04-27T06:58:15.605Z,952.83
2023-04-27T06:59:15.749Z,952.84
2023-04-27T07:00:15.586Z,952.85
2023-04-27T07:01:15.564Z,952.86
2023-04-27T07:02:15.578Z,952.90
2023-04-27T07:03:15.673Z,952.91
2023-04-27T07:04:15.656Z,952.92
2023-04-27T07:05:15.544Z,952.93
2023-04-27T07:06:15.509Z,952.93
2023-04-27T07:07:15.600Z,952.98
2023-04-27T07:08:15.467Z,953.01
2023-04-27T07:09:26.444Z,953.02
2023-04-27T07:10:16.468Z,952.98
2023-04-27T07:11:15.433Z,953.04
2023-04-27T07:12:15.445Z,952.99
2023-04-27T07:13:15.433Z,953.09
2023-04-27T07:14:15.397Z,953.06
2023-04-27T07:15:15.426Z,953.04
2023-04-27T07:16:15.454Z,953.07
2023-04-27T07:17:15.379Z,953.11
2023-04-27T07:18:15.375Z,953.09
2023-04-27T07:19:15.458Z,953.10
2023-04-27T07:20:15.338Z,953.11
2023-04-27T07:21:15.338Z,953.08
2023-04-27T07:22:15.308Z,953.05
2023-04-27T07:23:15.315Z,953.04
2023-04-27T07:24:15.288Z,953.05
2023-04-27T07:25:15.274Z,953.08
2023-04-27T07:26:15.306Z,953.09
2023-04-27T07:27:15.265Z,953.11
2023-04-27T07:28:15.248Z,953.12
2023-04-27T07:29:26.095Z,953.14
2023-04-27T07:30:16.242Z,953.10
2023-04-27T07:31:15.250Z,953.12
2023-04-27T07:32:15.333Z,953.08
2023-04-27T07:33:15.183Z,953.09
2023-04-27T07:34:15.180Z,953.12
2023-04-27T07:35:15.233Z,953.12
2023-04-27T07:36:15.151Z,953.13
2023-04-27T07:37:15.139Z,953.09
2023-04-27T07:38:15.144Z,953.12
2023-04-27T07:39:15.426Z,953.11
2023-04-27T07:40:15.110Z,953.08
2023-04-27T07:41:15.092Z,953.07
2023-04-27T07:42:15.085Z,953.10
2023-04-27T07:43:15.097Z,953.09
2023-04-27T07:44:15.105Z,953.13
2023-04-27T07:45:15.067Z,953.11
2023-04-27T07:46:15.088Z,953.15
2023-04-27T07:47:15.023Z,953.16
2023-04-27T07:48:15.095Z,953.13
2023-04-27T07:49:15.390Z,953.16
2023-04-27T07:50:15.017Z,953.14
2023-04-27T07:51:15.054Z,953.16
2023-04-27T07:52:14.969Z,953.12
2023-04-27T07:53:14.956Z,953.16
2023-04-27T07:54:14.963Z,953.18
2023-04-27T07:55:14.954Z,953.15
2023-04-27T07:56:14.930Z,953.22
2023-04-27T07:57:14.908Z,953.18
2023-04-27T07:58:14.920Z,953.16
2023-04-27T07:59:15.258Z,953.17
2023-04-27T08:00:14.894Z,953.22
2023-04-27T08:01:14.898Z,953.21
2023-04-27T08:02:18.966Z,953.21
2023-04-27T08:03:16.020Z,953.25
2023-04-27T08:04:15.208Z,953.25
2023-04-27T08:05:15.309Z,953.21
2023-04-27T08:06:15.068Z,953.20
2023-04-27T08:07:15.038Z,953.21
2023-04-27T08:08:15.026Z,953.25
2023-04-27T08:09:15.187Z,953.28
2023-04-27T08:10:14.793Z,953.25
2023-04-27T08:11:14.754Z,953.25
2023-04-27T08:12:14.743Z,953.28
2023-04-27T08:13:14.784Z,953.29
2023-04-27T08:14:14.718Z,953.31
2023-04-27T08:15:14.747Z,953.30
2023-04-27T08:16:14.714Z,953.31
2023-04-27T08:17:14.734Z,953.26
2023-04-27T08:18:14.749Z,953.25
2023-04-27T08:19:14.909Z,953.22
2023-04-27T08:20:14.679Z,953.21
2023-04-27T08:21:14.653Z,953.17
2023-04-27T08:22:14.645Z,953.19
2023-04-27T08:23:14.632Z,953.19
2023-04-27T08:24:14.633Z,953.20
2023-04-27T08:25:14.618Z,953.20
2023-04-27T08:26:14.599Z,953.21
2023-04-27T08:27:14.567Z,953.24
2023-04-27T08:28:14.611Z,953.28
2023-04-27T08:29:26.167Z,953.31
2023-04-27T08:30:15.537Z,953.29
2023-04-27T08:31:14.599Z,953.29
2023-04-27T08:32:14.529Z,953.33
2023-04-27T08:33:14.562Z,953.29
2023-04-27T08:34:14.496Z,953.33
2023-04-27T08:35:14.482Z,953.29
2023-04-27T08:36:14.512Z,953.30
2023-04-27T08:37:14.461Z,953.30
2023-04-27T08:38:14.455Z,953.28
2023-04-27T08:39:14.785Z,953.32
2023-04-27T08:40:14.447Z,953.34
2023-04-27T08:41:21.491Z,953.31
2023-04-27T08:42:15.399Z,953.36
2023-04-27T08:43:14.409Z,953.31
2023-04-27T08:44:14.409Z,953.36
2023-04-27T08:45:14.364Z,953.34
2023-04-27T08:46:14.401Z,953.33
2023-04-27T08:47:14.350Z,953.36
2023-04-27T08:48:14.359Z,953.36
2023-04-27T08:49:16.502Z,953.34
2023-04-27T08:50:14.320Z,953.30
2023-04-27T08:51:14.314Z,953.32
2023-04-27T08:52:14.336Z,953.32
2023-04-27T08:53:14.269Z,953.33
2023-04-27T08:54:14.265Z,953.34
2023-04-27T08:55:16.505Z,953.31
2023-04-27T08:56:14.282Z,953.32
2023-04-27T08:57:14.269Z,953.25
2023-04-27T08:58:14.217Z,953.22
2023-04-27T08:59:14.510Z,953.25
2023-04-27T09:00:14.195Z,953.24
2023-04-27T09:01:14.205Z,953.26
2023-04-27T09:02:14.227Z,953.25
2023-04-27T09:03:14.293Z,953.28
2023-04-27T09:04:14.266Z,953.25
2023-04-27T09:05:14.244Z,953.26
2023-04-27T09:06:14.313Z,953.29
2023-04-27T09:07:14.168Z,953.26
2023-04-27T09:08:14.179Z,953.28
2023-04-27T09:09:14.373Z,953.32
2023-04-27T09:10:14.092Z,953.32
2023-04-27T09:11:14.115Z,953.27
2023-04-27T09:12:14.066Z,953.26
2023-04-27T09:13:14.071Z,953.24
2023-04-27T09:14:14.048Z,953.24
2023-04-27T09:15:14.040Z,953.24
2023-04-27T09:16:14.068Z,953.25
2023-04-27T09:17:14.001Z,953.27
2023-04-27T09:18:14.013Z,953.26
2023-04-27T09:19:14.192Z,953.29
2023-04-27T09:20:14.004Z,953.37
2023-04-27T09:21:13.963Z,953.33
2023-04-27T09:22:13.948Z,953.33
2023-04-27T09:23:13.962Z,953.34
2023-04-27T09:24:13.939Z,953.28
2023-04-27T09:25:13.921Z,953.32
2023-04-27T09:26:13.916Z,953.28
2023-04-27T09:27:13.904Z,953.29
2023-04-27T09:28:13.902Z,953.24
2023-04-27T09:29:20.916Z,953.30
2023-04-27T09:30:13.857Z,953.26
2023-04-27T09:31:13.869Z,953.21
2023-04-27T09:32:15.028Z,953.22
2023-04-27T09:33:13.845Z,953.18
2023-04-27T09:34:13.810Z,953.21
2023-04-27T09:35:13.826Z,953.16
2023-04-27T09:36:13.786Z,953.14
2023-04-27T09:37:13.777Z,953.17
2023-04-27T09:38:15.425Z,953.09
2023-04-27T09:39:13.983Z,953.05
2023-04-27T09:40:13.787Z,953.06
2023-04-27T09:41:13.743Z,953.14
2023-04-27T09:42:13.736Z,953.12
2023-04-27T09:43:13.719Z,953.10
2023-04-27T09:44:13.724Z,953.05
2023-04-27T09:45:13.697Z,953.14
2023-04-27T09:46:13.729Z,953.13
2023-04-27T09:47:13.666Z,953.15
2023-04-27T09:48:13.688Z,953.16
2023-04-27T09:49:13.846Z,953.14
2023-04-27T09:50:13.644Z,953.09
2023-04-27T09:51:13.623Z,953.15
2023-04-27T09:52:13.997Z,953.06
2023-04-27T09:53:13.723Z,953.07
2023-04-27T09:54:13.602Z,953.02
2023-04-27T09:55:13.580Z,953.02
2023-04-27T09:56:13.605Z,953.07
2023-04-27T09:57:13.574Z,953.02
2023-04-27T09:58:13.565Z,953.02
2023-04-27T09:59:13.737Z,953.01
2023-04-27T10:00:13.526Z,953.03
2023-04-27T10:01:13.553Z,953.04
2023-04-27T10:02:24.966Z,953.03
2023-04-27T10:03:14.567Z,953.03
2023-04-27T10:04:13.740Z,952.97
2023-04-27T10:05:13.519Z,953.00
2023-04-27T10:06:21.786Z,952.94
2023-04-27T10:07:13.476Z,952.91
2023-04-27T10:08:13.432Z,952.96
2023-04-27T10:09:20.500Z,952.92
2023-04-27T10:10:13.425Z,952.87
2023-04-27T10:11:13.402Z,952.91
2023-04-27T10:12:13.415Z,952.90
2023-04-27T10:13:13.396Z,952.91
2023-04-27T10:14:13.393Z,952.97
2023-04-27T10:15:13.367Z,952.97
2023-04-27T10:16:13.361Z,952.96
2023-04-27T10:17:13.422Z,952.90
2023-04-27T10:18:13.357Z,952.91
2023-04-27T10:19:13.725Z,952.97
2023-04-27T10:20:13.305Z,953.00
2023-04-27T10:21:13.306Z,953.02
2023-04-27T10:22:13.283Z,952.99
2023-04-27T10:23:13.262Z,953.01
2023-04-27T10:24:13.249Z,953.06
2023-04-27T10:25:13.245Z,952.97
2023-04-27T10:26:13.264Z,952.97
2023-04-27T10:27:13.257Z,952.97
2023-04-27T10:28:13.220Z,952.96
2023-04-27T10:29:13.399Z,952.92
2023-04-27T10:30:13.187Z,952.93
2023-04-27T10:31:13.226Z,952.93
2023-04-27T10:32:13.180Z,952.93
2023-04-27T10:33:13.153Z,952.90
2023-04-27T10:34:13.139Z,952.88
2023-04-27T10:35:13.136Z,952.82
2023-04-27T10:36:13.137Z,952.83
2023-04-27T10:37:13.109Z,952.87
2023-04-27T10:38:13.104Z,952.95
2023-04-27T10:39:13.233Z,953.00
2023-04-27T10:40:13.086Z,952.95
2023-04-27T10:41:13.084Z,952.90
2023-04-27T10:42:13.047Z,952.88
2023-04-27T10:43:13.046Z,952.87
2023-04-27T10:44:13.047Z,952.82
2023-04-27T10:45:13.020Z,952.81
2023-04-27T10:46:13.084Z,952.83
2023-04-27T10:47:13.029Z,952.84
2023-04-27T10:48:13.059Z,952.83
2023-04-27T10:49:13.170Z,952.79
2023-04-27T10:50:12.969Z,952.78
2023-04-27T10:51:12.969Z,952.78
2023-04-27T10:52:12.936Z,952.82
2023-04-27T10:53:12.953Z,952.86
2023-04-27T10:54:12.919Z,952.86
2023-04-27T10:55:12.907Z,952.82
2023-04-27T10:56:12.942Z,952.90
2023-04-27T10:57:12.880Z,952.89
2023-04-27T10:58:12.873Z,952.93
2023-04-27T10:59:13.112Z,952.95
2023-04-27T11:00:13.346Z,952.92
2023-04-27T11:01:12.878Z,952.86
2023-04-27T11:02:12.946Z,952.89
2023-04-27T11:03:13.104Z,952.90
2023-04-27T11:04:13.135Z,952.90
2023-04-27T11:05:12.972Z,952.86
2023-04-27T11:06:12.838Z,952.87
2023-04-27T11:07:12.779Z,952.90
2023-04-27T11:08:12.824Z,952.79
2023-04-27T11:09:12.781Z,952.81
2023-04-27T11:10:12.752Z,952.83
2023-04-27T11:11:14.910Z,952.79
2023-04-27T11:12:12.743Z,952.86
2023-04-27T11:13:12.807Z,952.80
2023-04-27T11:14:12.928Z,952.80
2023-04-27T11:15:12.695Z,952.83
2023-04-27T11:16:12.728Z,952.80
2023-04-27T11:17:12.679Z,952.83
2023-04-27T11:18:12.711Z,952.83
2023-04-27T11:19:12.942Z,952.85
2023-04-27T11:20:12.642Z,952.88
2023-04-27T11:21:12.649Z,952.86
2023-04-27T11:22:12.622Z,952.86
2023-04-27T11:23:12.602Z,952.89
2023-04-27T11:24:15.155Z,952.82
2023-04-27T11:25:12.598Z,952.91
2023-04-27T11:26:12.583Z,952.95
2023-04-27T11:27:12.557Z,952.88
2023-04-27T11:28:12.563Z,952.89
2023-04-27T11:29:12.763Z,952.88
2023-04-27T11:30:12.522Z,952.85
2023-04-27T11:31:12.534Z,952.82
2023-04-27T11:32:12.508Z,952.85
2023-04-27T11:33:12.615Z,952.85
2023-04-27T11:34:13.789Z,952.92
2023-04-27T11:35:12.486Z,952.92
2023-04-27T11:36:12.453Z,952.85
2023-04-27T11:37:18.377Z,952.84
2023-04-27T11:38:13.454Z,952.79
2023-04-27T11:39:12.654Z,952.80
2023-04-27T11:40:12.437Z,952.81
2023-04-27T11:41:12.408Z,952.85
2023-04-27T11:42:12.387Z,952.89
2023-04-27T11:43:12.385Z,952.91
2023-04-27T11:44:12.393Z,952.86
2023-04-27T11:45:12.353Z,952.87
2023-04-27T11:46:12.371Z,952.89
2023-04-27T11:47:12.390Z,952.96
2023-04-27T11:48:12.450Z,952.94
2023-04-27T11:49:12.494Z,952.88
2023-04-27T11:50:12.346Z,952.87
2023-04-27T11:51:12.318Z,952.90
2023-04-27T11:52:12.277Z,952.88
2023-04-27T11:53:12.279Z,952.93
2023-04-27T11:54:12.544Z,952.95
2023-04-27T11:55:12.270Z,952.86
2023-04-27T11:56:12.270Z,952.85
2023-04-27T11:57:12.247Z,952.97
2023-04-27T11:58:12.213Z,952.92
2023-04-27T11:59:12.295Z,952.95
2023-04-27T12:00:12.189Z,953.01
2023-04-27T12:01:12.210Z,952.98
2023-04-27T12:02:12.227Z,952.98
2023-04-27T12:03:12.323Z,953.01
2023-04-27T12:04:12.340Z,952.98
2023-04-27T12:05:12.760Z,953.03
2023-04-27T12:06:31.651Z,953.02
2023-04-27T12:07:13.139Z,952.99
2023-04-27T12:08:12.124Z,953.06
2023-04-27T12:09:12.086Z,953.02
2023-04-27T12:10:12.072Z,953.00
2023-04-27T12:11:12.081Z,952.95
2023-04-27T12:12:12.048Z,953.01
2023-04-27T12:13:12.060Z,953.02
2023-04-27T12:14:12.081Z,953.06
2023-04-27T12:15:12.016Z,953.01
2023-04-27T12:16:12.010Z,953.08
2023-04-27T12:17:12.044Z,953.06
2023-04-27T12:18:12.027Z,953.06
2023-04-27T12:19:11.985Z,953.05
2023-04-27T12:20:12.085Z,953.00
2023-04-27T12:21:11.954Z,952.96
2023-04-27T12:22:11.964Z,952.97
2023-04-27T12:23:11.932Z,953.01
2023-04-27T12:24:12.443Z,952.93
2023-04-27T12:25:11.904Z,953.05
2023-04-27T12:26:14.440Z,953.05
2023-04-27T12:27:11.907Z,953.07
2023-04-27T12:28:11.897Z,952.98
2023-04-27T12:29:11.859Z,953.00